Time,TemperatureF,DewpointF,PressureIn,WindDirection,WindDirectionDegrees,WindSpeedMPH,WindSpeedGustMPH,Humidity,HourlyPrecipIn,Conditions,Clouds,dailyrainin,SolarRadiationWatts/m^2,SoftwareType,DateUTC
2013-02-04 00:01:00,19.2,6.5,29.97,WSW,248,3.1,3.5,57,0.00,OVC,,0.00,0.0,WeatherDisplay:10.37,2013-02-04 05:01:00,
2013-02-04 00:03:00,19.2,6.5,29.97,WSW,248,2.2,4.6,57,0.00,OVC,,0.00,0.0,WeatherDisplay:10.37,2013-02-04 05:03:00,
2013-02-04 00:08:00,19.2,6.5,29.97,WSW,248,0.0,1.2,57,0.00,OVC,,0.00,0.0,WeatherDisplay:10.37,2013-02-04 05:08:00,
2013-02-04 00:13:00,19.4,7.0,29.97,WSW,248,2.2,2.6,58,0.00,OVC,,0.00,0.0,WeatherDisplay:10.37,2013-02-04 05:13:00,
2013-02-04 00:18:00,19.4,7.0,29.97,SSW,202,2.4,3.8,58,0.00,OVC,,0.00,0.0,WeatherDisplay:10.37,2013-02-04 05:18:00,
2013-02-04 00:23:00,19.4,7.0,29.97,SSW,202,2.2,3.5,58,0.00,OVC,,0.00,0.0,WeatherDisplay:10.37,2013-02-04 05:23:00,
2013-02-04 00:28:00,19.6,7.2,29.97,WSW,248,3.3,5.8,58,0.00,OVC,,0.00,0.0,WeatherDisplay:10.37,2013-02-04 05:28:00,
2013-02-04 00:33:00,19.4,7.0,29.97,SSW,202,2.4,2.4,58,0.00,OVC,,0.00,0.0,WeatherDisplay:10.37,2013-02-04 05:33:00,
2013-02-04 00:38:00,19.4,7.0,29.97,SSW,202,3.3,4.6,58,0.00,OVC,,0.00,0.0,WeatherDisplay:10.37,2013-02-04 05:38:00,
2013-02-04 00:43:00,19.2,7.2,30.00,WSW,248,3.8,4.6,59,0.00,OVC,,0.00,0.0,WeatherDisplay:10.37,2013-02-04 05:43:00,
2013-02-04 00:48:00,19.2,7.2,30.00,SW,225,2.6,3.5,59,0.00,OVC,,0.00,0.0,WeatherDisplay:10.37,2013-02-04 05:48:00,
2013-02-04 00:53:00,19.2,7.2,30.00,WSW,248,2.6,3.5,59,0.00,OVC,,0.00,0.0,WeatherDisplay:10.37,2013-02-04 05:53:00,
2013-02-04 00:58:00,19.4,7.8,29.97,WSW,248,2.2,3.5,60,0.00,OVC,,0.00,0.0,WeatherDisplay:10.37,2013-02-04 05:58:00,
2013-02-04 01:03:00,19.4,7.8,29.97,WSW,248,2.9,4.6,60,0.00,OVC,,0.00,0.0,WeatherDisplay:10.37,2013-02-04 06:03:00,
2013-02-04 01:08:00,19.4,7.8,29.97,WSW,248,2.2,3.5,60,0.00,OVC,,0.00,0.0,WeatherDisplay:10.37,2013-02-04 06:08:00,
2013-02-04 01:13:00,19.4,7.8,30.00,SSW,202,1.2,4.9,60,0.00,OVC,,0.00,0.0,WeatherDisplay:10.37,2013-02-04 06:13:00,
2013-02-04 01:18:00,19.6,7.9,30.00,WSW,248,3.6,4.6,60,0.00,OVC,,0.00,0.0,WeatherDisplay:10.37,2013-02-04 06:18:00,
2013-02-04 01:23:00,19.6,7.9,30.00,WSW,248,3.1,4.6,60,0.00,OVC,,0.00,0.0,WeatherDisplay:10.37,2013-02-04 06:23:00,
2013-02-04 01:28:00,19.6,7.9,30.00,WSW,248,3.1,4.6,60,0.00,OVC,,0.00,0.0,WeatherDisplay:10.37,2013-02-04 06:28:00,
2013-02-04 01:33:00,19.8,8.1,30.00,WSW,248,4.3,4.6,60,0.00,OVC,,0.00,0.0,WeatherDisplay:10.37,2013-02-04 06:33:00,
2013-02-04 01:38:00,19.8,8.1,30.00,WSW,248,3.8,5.8,60,0.00,OVC,,0.00,0.0,WeatherDisplay:10.37,2013-02-04 06:38:00,
2013-02-04 01:43:00,19.8,8.1,29.97,WSW,248,3.3,4.6,60,0.00,OVC,,0.00,0.0,WeatherDisplay:10.37,2013-02-04 06:43:00,
2013-02-04 01:48:00,19.8,8.1,29.97,WSW,248,3.6,3.6,60,0.00,OVC,,0.00,0.0,WeatherDisplay:10.37,2013-02-04 06:48:00,
2013-02-04 01:53:00,19.8,8.5,29.97,WSW,248,3.3,4.6,61,0.00,OVC,,0.00,2.8,WeatherDisplay:10.37,2013-02-04 06:53:00,
2013-02-04 01:58:00,19.8,8.5,29.97,WSW,248,1.6,3.5,61,0.00,OVC,,0.00,3.7,WeatherDisplay:10.37,2013-02-04 06:58:00,
2013-02-04 02:03:00,19.8,8.5,29.97,WSW,248,2.6,4.6,61,0.00,OVC,,0.00,0.0,WeatherDisplay:10.37,2013-02-04 07:03:00,
2013-02-04 02:08:00,19.8,8.5,29.97,West,270,1.6,4.6,61,0.00,OVC,,0.00,0.0,WeatherDisplay:10.37,2013-02-04 07:08:00,
2013-02-04 02:13:00,19.8,8.5,30.00,WNW,292,2.4,4.6,61,0.00,OVC,,0.00,0.0,WeatherDisplay:10.37,2013-02-04 07:13:00,
2013-02-04 02:18:00,19.8,8.5,30.00,West,270,1.6,3.5,61,0.00,OVC,,0.00,0.0,WeatherDisplay:10.37,2013-02-04 07:18:00,
2013-02-04 02:23:00,19.9,9.0,30.00,WSW,248,1.4,1.4,62,0.00,OVC,,0.00,0.0,WeatherDisplay:10.37,2013-02-04 07:23:00,
2013-02-04 02:28:00,19.9,9.0,30.00,West,270,2.9,3.5,62,0.00,OVC,,0.00,0.0,WeatherDisplay:10.37,2013-02-04 07:28:00,
2013-02-04 02:33:00,20.1,9.2,30.00,SSW,202,1.6,2.4,62,0.00,OVC,,0.00,0.0,WeatherDisplay:10.37,2013-02-04 07:33:00,
2013-02-04 02:38:00,20.1,9.5,30.00,SW,225,3.1,3.5,63,0.00,OVC,,0.00,11.1,WeatherDisplay:10.37,2013-02-04 07:38:00,
2013-02-04 02:43:00,19.9,9.4,30.00,WSW,248,2.4,2.6,63,0.00,OVC,,0.00,0.0,WeatherDisplay:10.37,2013-02-04 07:43:00,
2013-02-04 02:48:00,19.9,9.4,30.00,WSW,248,0.9,2.3,63,0.00,OVC,,0.00,0.0,WeatherDisplay:10.37,2013-02-04 07:48:00,
2013-02-04 02:53:00,19.9,9.4,30.00,SW,225,2.6,3.5,63,0.00,OVC,,0.00,0.0,WeatherDisplay:10.37,2013-02-04 07:53:00,
2013-02-04 02:58:00,19.9,9.4,30.00,WSW,248,2.4,3.5,63,0.00,OVC,,0.00,0.0,WeatherDisplay:10.37,2013-02-04 07:58:00,
2013-02-04 03:03:00,19.9,9.4,30.00,WSW,248,0.9,1.2,63,0.00,OVC,,0.00,0.0,WeatherDisplay:10.37,2013-02-04 08:03:00,
2013-02-04 03:08:00,20.1,9.5,30.00,WSW,248,0.0,1.2,63,0.00,OVC,,0.00,0.0,WeatherDisplay:10.37,2013-02-04 08:08:00,
2013-02-04 03:13:00,20.1,9.9,30.00,West,270,0.0,0.0,64,0.00,OVC,,0.00,17.9,WeatherDisplay:10.37,2013-02-04 08:13:00,
2013-02-04 03:18:00,20.1,9.9,30.00,West,270,2.0,2.3,64,0.00,OVC,,0.00,19.0,WeatherDisplay:10.37,2013-02-04 08:18:00,
2013-02-04 03:23:00,19.9,9.4,30.00,WNW,292,2.9,3.5,63,0.00,OVC,,0.00,0.0,WeatherDisplay:10.37,2013-02-04 08:23:00,
2013-02-04 03:28:00,20.1,9.9,30.00,WSW,248,1.2,2.3,64,0.00,OVC,,0.00,0.0,WeatherDisplay:10.37,2013-02-04 08:28:00,
2013-02-04 03:33:00,20.1,9.9,30.00,SW,225,0.0,0.0,64,0.00,OVC,,0.00,0.0,WeatherDisplay:10.37,2013-02-04 08:33:00,
2013-02-04 03:38:00,20.1,9.9,30.00,WSW,248,0.9,2.4,64,0.00,OVC,,0.00,0.0,WeatherDisplay:10.37,2013-02-04 08:38:00,
2013-02-04 03:43:00,20.1,9.9,29.97,SW,225,0.0,0.0,64,0.00,OVC,,0.00,0.0,WeatherDisplay:10.37,2013-02-04 08:43:00,
2013-02-04 03:48:00,20.1,9.9,29.97,WSW,248,0.0,3.3,64,0.00,OVC,,0.00,0.0,WeatherDisplay:10.37,2013-02-04 08:48:00,
2013-02-04 03:53:00,20.1,9.9,29.97,West,270,0.0,0.0,64,0.00,OVC,,0.00,0.0,WeatherDisplay:10.37,2013-02-04 08:53:00,
2013-02-04 03:58:00,20.1,9.9,30.00,West,270,0.0,0.0,64,0.00,OVC,,0.00,0.0,WeatherDisplay:10.37,2013-02-04 08:58:00,
2013-02-04 04:03:00,20.1,9.9,30.00,SW,225,0.0,2.3,64,0.00,OVC,,0.00,0.0,WeatherDisplay:10.37,2013-02-04 09:03:00,
2013-02-04 04:08:00,20.1,9.9,30.00,WSW,248,0.0,0.0,64,0.00,OVC,,0.00,0.0,WeatherDisplay:10.37,2013-02-04 09:08:00,
2013-02-04 04:13:00,20.1,9.9,29.97,WSW,248,0.0,0.0,64,0.00,OVC,,0.00,0.0,WeatherDisplay:10.37,2013-02-04 09:13:00,
2013-02-04 04:18:00,20.3,10.1,29.97,WSW,248,0.0,0.0,64,0.00,OVC,,0.00,0.0,WeatherDisplay:10.37,2013-02-04 09:18:00,
2013-02-04 04:23:00,20.3,10.1,29.97,WSW,248,0.0,0.0,64,0.00,OVC,,0.00,0.0,WeatherDisplay:10.37,2013-02-04 09:23:00,
2013-02-04 04:28:00,20.3,10.1,29.97,WSW,248,0.0,0.0,64,0.00,OVC,,0.00,0.0,WeatherDisplay:10.37,2013-02-04 09:28:00,
2013-02-04 04:33:00,20.3,10.1,29.97,WSW,248,0.0,0.0,64,0.00,OVC,,0.00,0.0,WeatherDisplay:10.37,2013-02-04 09:33:00,
2013-02-04 04:38:00,20.1,9.9,29.97,WSW,248,0.0,0.0,64,0.00,OVC,,0.00,0.0,WeatherDisplay:10.37,2013-02-04 09:38:00,
2013-02-04 04:43:00,20.3,10.1,29.97,WSW,248,0.0,0.0,64,0.00,OVC,,0.00,0.0,WeatherDisplay:10.37,2013-02-04 09:43:00,
2013-02-04 04:48:00,20.3,10.1,29.97,WSW,248,0.0,1.2,64,0.00,OVC,,0.00,0.0,WeatherDisplay:10.37,2013-02-04 09:48:00,
2013-02-04 04:53:00,20.3,10.1,29.97,West,270,1.4,0.0,64,0.00,OVC,,0.00,0.0,WeatherDisplay:10.37,2013-02-04 09:53:00,
2013-02-04 04:58:00,20.3,10.1,29.97,WSW,248,0.0,0.0,64,0.00,OVC,,0.00,0.0,WeatherDisplay:10.37,2013-02-04 09:58:00,
2013-02-04 05:03:00,20.3,10.1,29.97,SSW,202,0.0,0.0,64,0.00,-SN,OVC,0.00,0.0,WeatherDisplay:10.37,2013-02-04 10:03:00,
2013-02-04 05:08:00,20.1,9.9,29.97,SSW,202,0.0,0.0,64,0.00,-SN,OVC,0.00,0.0,WeatherDisplay:10.37,2013-02-04 10:08:00,
2013-02-04 05:13:00,20.3,10.1,29.97,SSW,202,0.0,0.0,64,0.00,-SN,OVC,0.00,0.0,WeatherDisplay:10.37,2013-02-04 10:13:00,
2013-02-04 05:19:00,20.1,9.9,29.97,SSW,202,0.0,0.0,64,0.00,-SN,OVC,0.00,0.0,WeatherDisplay:10.37,2013-02-04 10:19:00,
2013-02-04 05:24:00,19.9,9.7,29.97,SSW,202,0.0,0.0,64,0.00,-SN,OVC,0.00,0.0,WeatherDisplay:10.37,2013-02-04 10:24:00,
2013-02-04 05:29:00,19.8,9.5,30.00,SSW,202,0.0,0.0,64,0.00,-SN,OVC,0.00,0.0,WeatherDisplay:10.37,2013-02-04 10:29:00,
2013-02-04 05:34:00,19.8,9.5,30.00,SSW,202,0.0,0.0,64,0.00,-SN,OVC,0.00,0.0,WeatherDisplay:10.37,2013-02-04 10:34:00,
2013-02-04 05:39:00,19.6,9.4,30.00,SSW,202,0.0,0.0,64,0.00,-SN,OVC,0.00,0.0,WeatherDisplay:10.37,2013-02-04 10:39:00,
2013-02-04 05:44:00,19.6,9.4,29.97,South,180,0.0,0.0,64,0.00,-SN,OVC,0.00,0.0,WeatherDisplay:10.37,2013-02-04 10:44:00,
2013-02-04 05:49:00,19.4,9.2,29.97,SSE,158,0.0,0.0,64,0.00,-SN,OVC,0.00,0.0,WeatherDisplay:10.37,2013-02-04 10:49:00,
2013-02-04 05:54:00,19.4,9.2,29.97,SSE,158,0.0,0.0,64,0.00,-SN,OVC,0.00,0.0,WeatherDisplay:10.37,2013-02-04 10:54:00,
2013-02-04 05:59:00,19.4,9.2,29.97,SSE,158,0.0,0.0,64,0.00,-SN,OVC,0.00,0.0,WeatherDisplay:10.37,2013-02-04 10:59:00,
2013-02-04 06:04:00,19.4,9.2,29.97,SSE,158,0.0,0.0,64,0.00,-SN,OVC,0.00,0.0,WeatherDisplay:10.37,2013-02-04 11:04:00,
2013-02-04 06:09:00,19.2,9.0,29.97,SSE,158,0.0,0.0,64,0.00,-SN,OVC,0.00,0.0,WeatherDisplay:10.37,2013-02-04 11:09:00,
2013-02-04 06:14:00,19.2,9.0,29.97,SSE,158,0.0,0.0,64,0.00,-SN,OVC,0.00,0.0,WeatherDisplay:10.37,2013-02-04 11:14:00,
2013-02-04 06:19:00,19.2,9.4,29.97,SSE,158,0.0,0.0,65,0.00,-SN,OVC,0.00,0.0,WeatherDisplay:10.37,2013-02-04 11:19:00,
2013-02-04 06:24:00,19.2,9.4,29.97,SSE,158,0.0,0.0,65,0.00,-SN,OVC,0.00,0.0,WeatherDisplay:10.37,2013-02-04 11:24:00,
2013-02-04 06:29:00,19.2,9.4,29.97,SSE,158,0.0,0.0,65,0.00,-SN,OVC,0.00,0.0,WeatherDisplay:10.37,2013-02-04 11:29:00,
2013-02-04 06:34:00,19.2,9.4,29.97,East,90,0.0,0.0,65,0.00,-SN,OVC,0.00,0.0,WeatherDisplay:10.37,2013-02-04 11:34:00,
2013-02-04 06:39:00,19.4,9.5,29.97,East,90,0.0,0.0,65,0.00,-SN,OVC,0.00,0.0,WeatherDisplay:10.37,2013-02-04 11:39:00,
2013-02-04 06:44:00,19.4,9.5,29.97,East,90,0.0,0.0,65,0.00,-SN,OVC,0.00,0.0,WeatherDisplay:10.37,2013-02-04 11:44:00,
2013-02-04 06:49:00,19.4,9.5,29.97,ESE,112,0.0,0.0,65,0.00,-SN,OVC,0.00,0.0,WeatherDisplay:10.37,2013-02-04 11:49:00,
2013-02-04 06:54:00,19.6,9.4,29.97,SE,135,0.0,0.0,64,0.00,-SN,OVC,0.00,0.0,WeatherDisplay:10.37,2013-02-04 11:54:00,
2013-02-04 06:59:00,19.6,9.4,29.97,SE,135,0.0,0.0,64,0.00,-SN,OVC,0.00,0.0,WeatherDisplay:10.37,2013-02-04 11:59:00,
2013-02-04 07:04:00,19.6,9.4,29.97,ESE,112,0.0,0.0,64,0.00,OVC,,0.00,0.0,WeatherDisplay:10.37,2013-02-04 12:04:00,
2013-02-04 07:09:00,19.6,9.4,29.97,ENE,68,0.0,0.0,64,0.00,OVC,,0.00,0.0,WeatherDisplay:10.37,2013-02-04 12:09:00,
2013-02-04 07:14:00,19.6,9.4,29.97,ESE,112,0.0,0.0,64,0.00,OVC,,0.00,0.0,WeatherDisplay:10.37,2013-02-04 12:14:00,
2013-02-04 07:19:00,19.6,9.7,29.97,ESE,112,0.0,0.0,65,0.00,OVC,,0.00,0.0,WeatherDisplay:10.37,2013-02-04 12:19:00,
2013-02-04 07:24:00,19.8,9.9,29.97,ESE,112,0.0,0.0,65,0.00,OVC,,0.00,0.0,WeatherDisplay:10.37,2013-02-04 12:24:00,
2013-02-04 07:29:00,19.8,9.9,29.97,ESE,112,0.0,0.0,65,0.00,OVC,,0.00,0.0,WeatherDisplay:10.37,2013-02-04 12:29:00,
2013-02-04 07:34:00,19.9,10.1,29.97,ESE,112,0.0,0.0,65,0.00,OVC,,0.00,0.0,WeatherDisplay:10.37,2013-02-04 12:34:00,
2013-02-04 07:39:00,19.9,10.1,29.97,ESE,112,2.6,4.6,65,0.00,OVC,,0.00,0.0,WeatherDisplay:10.37,2013-02-04 12:39:00,
2013-02-04 07:44:00,20.1,10.2,29.94,SE,135,2.2,2.4,65,0.00,OVC,,0.00,0.0,WeatherDisplay:10.37,2013-02-04 12:44:00,
2013-02-04 07:49:00,20.1,10.2,29.94,ESE,112,0.0,0.0,65,0.00,OVC,,0.00,0.0,WeatherDisplay:10.37,2013-02-04 12:49:00,
2013-02-04 07:54:00,20.1,10.2,29.94,SE,135,0.0,0.0,65,0.00,OVC,,0.00,0.0,WeatherDisplay:10.37,2013-02-04 12:54:00,
2013-02-04 07:59:00,20.3,10.4,29.97,SSE,158,0.0,0.0,65,0.00,OVC,,0.00,0.0,WeatherDisplay:10.37,2013-02-04 12:59:00,
2013-02-04 08:04:00,20.3,10.4,29.97,SSE,158,2.6,3.5,65,0.00,-SN,OVC,0.00,0.0,WeatherDisplay:10.37,2013-02-04 13:04:00,
2013-02-04 08:09:00,20.3,10.4,29.97,SE,135,1.4,3.5,65,0.00,-SN,OVC,0.00,0.0,WeatherDisplay:10.37,2013-02-04 13:09:00,
2013-02-04 08:14:00,20.5,10.6,29.94,SSE,158,0.0,3.1,65,0.00,-SN,OVC,0.00,0.0,WeatherDisplay:10.37,2013-02-04 13:14:00,
2013-02-04 08:19:00,20.5,10.6,29.94,SSE,158,1.6,3.5,65,0.00,-SN,OVC,0.00,0.0,WeatherDisplay:10.37,2013-02-04 13:19:00,
2013-02-04 08:24:00,20.5,10.6,29.94,SSE,158,0.0,0.0,65,0.00,-SN,OVC,0.00,0.0,WeatherDisplay:10.37,2013-02-04 13:24:00,
2013-02-04 08:29:00,20.5,10.6,29.94,SSE,158,0.0,2.3,65,0.00,-SN,OVC,0.00,0.0,WeatherDisplay:10.37,2013-02-04 13:29:00,
2013-02-04 08:34:00,20.7,10.7,29.94,SSE,158,2.9,3.5,65,0.00,-SN,OVC,0.00,0.0,WeatherDisplay:10.37,2013-02-04 13:34:00,
2013-02-04 08:39:00,20.7,10.7,29.94,SSE,158,2.9,4.6,65,0.00,-SN,OVC,0.00,0.0,WeatherDisplay:10.37,2013-02-04 13:39:00,
2013-02-04 08:44:00,20.7,10.7,29.94,SSE,158,0.0,1.2,65,0.00,-SN,OVC,0.00,0.0,WeatherDisplay:10.37,2013-02-04 13:44:00,
2013-02-04 08:49:00,20.7,10.7,29.94,SSE,158,0.0,0.0,65,0.00,-SN,OVC,0.00,0.0,WeatherDisplay:10.37,2013-02-04 13:49:00,
2013-02-04 08:54:00,20.8,10.9,29.94,SSE,158,0.0,0.0,65,0.00,-SN,OVC,0.00,0.0,WeatherDisplay:10.37,2013-02-04 13:54:00,
2013-02-04 08:59:00,20.8,10.9,29.97,SSE,158,0.0,0.0,65,0.00,-SN,OVC,0.00,0.0,WeatherDisplay:10.37,2013-02-04 13:59:00,
2013-02-04 09:04:00,20.8,10.9,29.97,SSE,158,0.0,0.0,65,0.00,-SN,OVC,0.00,0.0,WeatherDisplay:10.37,2013-02-04 14:04:00,
2013-02-04 09:09:00,21.0,11.1,29.97,SSE,158,2.2,3.5,65,0.00,-SN,OVC,0.00,0.0,WeatherDisplay:10.37,2013-02-04 14:09:00,
2013-02-04 09:14:00,21.2,11.3,29.97,SSE,158,0.0,0.0,65,0.00,-SN,OVC,0.00,0.0,WeatherDisplay:10.37,2013-02-04 14:14:00,
2013-02-04 09:19:00,21.2,11.3,29.97,SSE,158,0.0,0.0,65,0.00,-SN,OVC,0.00,0.0,WeatherDisplay:10.37,2013-02-04 14:19:00,
2013-02-04 09:24:00,21.4,11.4,29.97,SSE,158,0.0,0.0,65,0.00,-SN,OVC,0.00,0.0,WeatherDisplay:10.37,2013-02-04 14:24:00,
2013-02-04 09:29:00,21.4,11.4,29.94,SSE,158,2.0,3.5,65,0.00,-SN,OVC,0.00,0.0,WeatherDisplay:10.37,2013-02-04 14:29:00,
2013-02-04 09:34:00,21.7,11.8,29.94,SSE,158,0.9,2.6,65,0.00,-SN,OVC,0.00,0.0,WeatherDisplay:10.37,2013-02-04 14:34:00,
2013-02-04 09:39:00,21.9,11.9,29.94,SSE,158,2.4,3.5,65,0.00,-SN,OVC,0.00,0.0,WeatherDisplay:10.37,2013-02-04 14:39:00,
2013-02-04 09:44:00,21.9,11.9,29.97,SSE,158,0.0,2.2,65,0.00,-SN,OVC,0.00,0.0,WeatherDisplay:10.37,2013-02-04 14:44:00,
2013-02-04 09:49:00,21.9,11.9,29.97,SSE,158,2.0,3.5,65,0.00,-SN,OVC,0.00,0.0,WeatherDisplay:10.37,2013-02-04 14:49:00,
2013-02-04 09:54:00,22.1,12.1,29.97,SSE,158,4.0,4.6,65,0.00,-SN,OVC,0.00,0.0,WeatherDisplay:10.37,2013-02-04 14:54:00,
2013-02-04 09:59:00,22.3,12.3,29.94,SSE,158,3.1,4.6,65,0.00,-SN,OVC,0.00,0.0,WeatherDisplay:10.37,2013-02-04 14:59:00,
2013-02-04 10:04:00,22.5,12.5,29.94,SSE,158,2.4,3.5,65,0.00,-SN,OVC,0.00,0.0,WeatherDisplay:10.37,2013-02-04 15:04:00,
2013-02-04 10:09:00,22.6,12.6,29.94,SSE,158,3.6,4.3,65,0.00,-SN,OVC,0.00,0.0,WeatherDisplay:10.37,2013-02-04 15:09:00,
2013-02-04 10:14:00,22.6,12.3,29.94,SSE,158,2.6,4.6,64,0.00,-SN,OVC,0.00,0.0,WeatherDisplay:10.37,2013-02-04 15:14:00,
2013-02-04 10:19:00,22.8,12.5,29.94,ESE,112,1.6,3.5,64,0.00,-SN,OVC,0.00,0.0,WeatherDisplay:10.37,2013-02-04 15:19:00,
2013-02-04 10:24:00,22.8,12.5,29.94,SSE,158,3.1,4.6,64,0.00,-SN,OVC,0.00,0.0,WeatherDisplay:10.37,2013-02-04 15:24:00,
2013-02-04 10:29:00,22.8,12.5,29.94,SSE,158,2.6,4.6,64,0.00,-SN,OVC,0.00,100.0,WeatherDisplay:10.37,2013-02-04 15:29:00,
2013-02-04 10:34:00,23.0,12.6,29.94,SE,135,1.2,1.2,64,0.00,-SN,OVC,0.00,100.0,WeatherDisplay:10.37,2013-02-04 15:34:00,
2013-02-04 10:39:00,23.2,12.8,29.94,SSE,158,2.6,3.5,64,0.00,-SN,OVC,0.00,100.0,WeatherDisplay:10.37,2013-02-04 15:39:00,
2013-02-04 10:44:00,23.4,13.0,29.94,SSE,158,2.9,3.5,64,0.00,-SN,OVC,0.00,100.0,WeatherDisplay:10.37,2013-02-04 15:44:00,
2013-02-04 10:49:00,23.5,13.1,29.94,SSE,158,4.0,4.6,64,0.00,-SN,OVC,0.00,100.0,WeatherDisplay:10.37,2013-02-04 15:49:00,
2013-02-04 10:54:00,23.7,13.3,29.94,SSE,158,3.8,4.7,64,0.00,-SN,OVC,0.00,100.0,WeatherDisplay:10.37,2013-02-04 15:54:00,
2013-02-04 10:59:00,23.9,13.5,29.94,SSE,158,2.0,3.5,64,0.00,-SN,OVC,0.00,100.0,WeatherDisplay:10.37,2013-02-04 15:59:00,
2013-02-04 11:04:00,24.3,13.8,29.94,SE,135,0.0,0.0,64,0.00,-SN,OVC,0.00,100.0,WeatherDisplay:10.37,2013-02-04 16:04:00,
2013-02-04 11:09:00,24.4,14.0,29.94,SSE,158,2.0,3.8,64,0.00,-SN,OVC,0.00,100.0,WeatherDisplay:10.37,2013-02-04 16:09:00,
2013-02-04 11:14:00,24.6,14.2,29.94,SSE,158,2.2,3.1,64,0.00,-SN,OVC,0.00,100.0,WeatherDisplay:10.37,2013-02-04 16:14:00,
2013-02-04 11:19:00,24.8,14.0,29.94,SSE,158,4.0,4.6,63,0.00,-SN,OVC,0.00,100.0,WeatherDisplay:10.37,2013-02-04 16:19:00,
2013-02-04 11:24:00,24.8,14.0,29.94,SSE,158,3.3,4.6,63,0.00,-SN,OVC,0.00,200.0,WeatherDisplay:10.37,2013-02-04 16:24:00,
2013-02-04 11:29:00,25.2,14.3,29.94,SSE,158,3.1,4.6,63,0.00,-SN,OVC,0.00,200.0,WeatherDisplay:10.37,2013-02-04 16:29:00,
2013-02-04 11:34:00,25.2,14.3,29.94,SSE,158,2.4,4.6,63,0.00,-SN,OVC,0.00,200.0,WeatherDisplay:10.37,2013-02-04 16:34:00,
2013-02-04 11:39:00,25.3,14.5,29.94,SE,135,1.4,3.5,63,0.00,-SN,OVC,0.00,200.0,WeatherDisplay:10.37,2013-02-04 16:39:00,
2013-02-04 11:44:00,25.5,14.7,29.94,SSE,158,4.0,5.8,63,0.00,-SN,OVC,0.00,300.0,WeatherDisplay:10.37,2013-02-04 16:44:00,
2013-02-04 11:49:00,25.7,14.8,29.94,SSE,158,4.0,4.6,63,0.00,-SN,OVC,0.00,300.0,WeatherDisplay:10.37,2013-02-04 16:49:00,
2013-02-04 11:54:00,25.9,15.0,29.94,SSE,158,4.5,5.9,63,0.00,-SN,OVC,0.00,300.0,WeatherDisplay:10.37,2013-02-04 16:54:00,
2013-02-04 11:59:00,26.1,14.8,29.91,SE,135,5.4,5.8,62,0.00,-SN,OVC,0.00,300.0,WeatherDisplay:10.37,2013-02-04 16:59:00,
2013-02-04 12:04:00,26.1,14.8,29.91,SSE,158,3.6,4.6,62,0.00,-SN,OVC,0.00,300.0,WeatherDisplay:10.37,2013-02-04 17:04:00,
2013-02-04 12:09:00,26.4,15.2,29.91,SSE,158,3.8,5.8,62,0.00,-SN,OVC,0.00,300.0,WeatherDisplay:10.37,2013-02-04 17:09:00,
2013-02-04 12:14:00,26.4,15.2,29.91,SSE,158,3.8,5.8,62,0.00,-SN,OVC,0.00,300.0,WeatherDisplay:10.37,2013-02-04 17:14:00,
2013-02-04 12:19:00,26.4,15.2,29.91,ESE,112,2.9,4.6,62,0.00,-SN,OVC,0.00,300.0,WeatherDisplay:10.37,2013-02-04 17:19:00,
2013-02-04 12:24:00,26.6,15.3,29.91,SSE,158,3.1,4.6,62,0.00,-SN,OVC,0.00,200.0,WeatherDisplay:10.37,2013-02-04 17:24:00,
2013-02-04 12:29:00,26.8,15.1,29.94,SSE,158,2.6,3.5,61,0.00,-SN,OVC,0.00,200.0,WeatherDisplay:10.37,2013-02-04 17:29:00,
2013-02-04 12:34:00,26.6,14.9,29.94,SSE,158,4.0,4.6,61,0.00,-SN,OVC,0.00,200.0,WeatherDisplay:10.37,2013-02-04 17:34:00,
2013-02-04 12:39:00,26.6,14.9,29.94,SSE,158,4.0,5.8,61,0.00,-SN,OVC,0.00,200.0,WeatherDisplay:10.37,2013-02-04 17:39:00,
2013-02-04 12:44:00,26.8,14.7,29.91,SSE,158,3.6,3.6,60,0.00,-SN,OVC,0.00,200.0,WeatherDisplay:10.37,2013-02-04 17:44:00,
2013-02-04 12:49:00,27.0,14.9,29.91,SSE,158,3.6,5.6,60,0.00,-SN,OVC,0.00,300.0,WeatherDisplay:10.37,2013-02-04 17:49:00,
2013-02-04 12:54:00,27.0,15.3,29.91,SSE,158,4.7,4.7,61,0.00,-SN,OVC,0.00,300.0,WeatherDisplay:10.37,2013-02-04 17:54:00,
2013-02-04 12:59:00,27.0,14.5,29.88,SSE,158,5.4,5.8,59,0.00,-SN,OVC,0.00,300.0,WeatherDisplay:10.37,2013-02-04 17:59:00,
2013-02-04 13:04:00,27.0,14.9,29.88,SE,135,4.7,5.8,60,0.00,-SN,OVC,0.00,200.0,WeatherDisplay:10.37,2013-02-04 18:04:00,
2013-02-04 13:09:00,27.1,15.1,29.88,SSE,158,4.5,5.4,60,0.00,-SN,OVC,0.00,200.0,WeatherDisplay:10.37,2013-02-04 18:09:00,
2013-02-04 13:14:00,27.1,15.1,29.88,SSE,158,4.3,5.8,60,0.00,-SN,OVC,0.00,200.0,WeatherDisplay:10.37,2013-02-04 18:14:00,
2013-02-04 13:19:00,27.3,15.2,29.88,SSE,158,3.8,5.8,60,0.00,-SN,OVC,0.00,300.0,WeatherDisplay:10.37,2013-02-04 18:19:00,
2013-02-04 13:24:00,27.5,15.4,29.88,SSE,158,3.8,4.6,60,0.00,-SN,OVC,0.00,300.0,WeatherDisplay:10.37,2013-02-04 18:24:00,
2013-02-04 13:29:00,27.5,15.4,29.88,SSE,158,3.8,3.8,60,0.00,-SN,OVC,0.00,200.0,WeatherDisplay:10.37,2013-02-04 18:29:00,
2013-02-04 13:34:00,27.7,15.2,29.88,ESE,112,3.1,5.4,59,0.00,-SN,OVC,0.00,300.0,WeatherDisplay:10.37,2013-02-04 18:34:00,
2013-02-04 13:39:00,27.5,15.0,29.88,SSE,158,2.6,4.6,59,0.00,-SN,OVC,0.00,300.0,WeatherDisplay:10.37,2013-02-04 18:39:00,
2013-02-04 13:44:00,27.5,15.0,29.88,SSE,158,2.4,3.5,59,0.00,-SN,OVC,0.00,300.0,WeatherDisplay:10.37,2013-02-04 18:44:00,
2013-02-04 13:49:00,27.7,15.2,29.88,SSE,158,2.2,2.3,59,0.00,-SN,OVC,0.00,200.0,WeatherDisplay:10.37,2013-02-04 18:49:00,
2013-02-04 13:54:00,27.7,15.2,29.88,SE,135,1.2,1.6,59,0.00,-SN,OVC,0.00,200.0,WeatherDisplay:10.37,2013-02-04 18:54:00,
2013-02-04 13:59:00,27.7,14.8,29.88,ESE,112,1.6,2.4,58,0.00,-SN,OVC,0.00,200.0,WeatherDisplay:10.37,2013-02-04 18:59:00,
2013-02-04 14:04:00,27.5,14.6,29.88,SSE,158,1.4,2.3,58,0.00,-SN,OVC,0.00,200.0,WeatherDisplay:10.37,2013-02-04 19:04:00,
2013-02-04 14:09:00,27.3,14.5,29.88,SSE,158,1.4,3.5,58,0.00,-SN,OVC,0.00,200.0,WeatherDisplay:10.37,2013-02-04 19:09:00,
2013-02-04 14:14:00,27.3,14.5,29.88,SSE,158,3.1,4.6,58,0.00,-SN,OVC,0.00,200.0,WeatherDisplay:10.37,2013-02-04 19:14:00,
2013-02-04 14:19:00,27.3,14.9,29.88,SSE,158,2.6,3.5,59,0.00,-SN,OVC,0.00,200.0,WeatherDisplay:10.37,2013-02-04 19:19:00,
2013-02-04 14:24:00,27.3,14.9,29.88,SSE,158,1.6,3.5,59,0.00,-SN,OVC,0.00,200.0,WeatherDisplay:10.37,2013-02-04 19:24:00,
2013-02-04 14:29:00,27.3,14.9,29.88,SSE,158,1.6,2.6,59,0.00,-SN,OVC,0.00,200.0,WeatherDisplay:10.37,2013-02-04 19:29:00,
2013-02-04 14:34:00,27.3,14.9,29.88,SSE,158,3.1,4.6,59,0.00,-SN,OVC,0.00,200.0,WeatherDisplay:10.37,2013-02-04 19:34:00,
2013-02-04 14:39:00,27.5,15.0,29.88,SSE,158,0.0,2.3,59,0.00,-SN,OVC,0.00,200.0,WeatherDisplay:10.37,2013-02-04 19:39:00,
2013-02-04 14:44:00,27.5,15.0,29.88,SSE,158,1.4,3.5,59,0.00,-SN,OVC,0.00,200.0,WeatherDisplay:10.37,2013-02-04 19:44:00,
2013-02-04 14:49:00,27.7,15.2,29.88,SSE,158,2.0,2.3,59,0.00,-SN,OVC,0.00,200.0,WeatherDisplay:10.37,2013-02-04 19:49:00,
2013-02-04 14:54:00,27.7,15.2,29.88,SSE,158,0.0,1.6,59,0.00,-SN,OVC,0.00,200.0,WeatherDisplay:10.37,2013-02-04 19:54:00,
2013-02-04 14:59:00,27.7,15.2,29.88,SSE,158,1.6,2.3,59,0.00,-SN,OVC,0.00,200.0,WeatherDisplay:10.37,2013-02-04 19:59:00,
2013-02-04 15:04:00,27.9,15.4,29.88,ENE,68,0.0,2.4,59,0.00,-SN,OVC,0.00,200.0,WeatherDisplay:10.37,2013-02-04 20:04:00,
2013-02-04 15:09:00,27.9,15.4,29.88,ESE,112,0.0,0.0,59,0.00,-SN,OVC,0.00,100.0,WeatherDisplay:10.37,2013-02-04 20:09:00,
2013-02-04 15:14:00,27.9,15.4,29.88,SE,135,0.0,1.6,59,0.00,-SN,OVC,0.00,100.0,WeatherDisplay:10.37,2013-02-04 20:14:00,
2013-02-04 15:19:00,27.9,15.0,29.88,ESE,112,1.2,1.2,58,0.00,-SN,OVC,0.00,100.0,WeatherDisplay:10.37,2013-02-04 20:19:00,
2013-02-04 15:24:00,27.9,15.0,29.88,ESE,112,0.0,0.0,58,0.00,-SN,OVC,0.00,100.0,WeatherDisplay:10.37,2013-02-04 20:24:00,
2013-02-04 15:29:00,27.7,14.8,29.88,SSE,158,0.0,1.4,58,0.00,-SN,OVC,0.00,100.0,WeatherDisplay:10.37,2013-02-04 20:29:00,
2013-02-04 15:34:00,27.5,14.6,29.88,SSE,158,0.0,1.2,58,0.00,-SN,OVC,0.00,100.0,WeatherDisplay:10.37,2013-02-04 20:34:00,
2013-02-04 15:39:00,27.7,14.8,29.88,ESE,112,0.9,2.3,58,0.00,-SN,OVC,0.00,100.0,WeatherDisplay:10.37,2013-02-04 20:39:00,
2013-02-04 15:44:00,27.7,14.8,29.88,ENE,68,0.9,2.3,58,0.00,-SN,OVC,0.00,100.0,WeatherDisplay:10.37,2013-02-04 20:44:00,
2013-02-04 15:49:00,27.5,14.6,29.88,ENE,68,0.0,2.4,58,0.00,-SN,OVC,0.00,100.0,WeatherDisplay:10.37,2013-02-04 20:49:00,
2013-02-04 15:54:00,27.5,14.6,29.88,East,90,0.0,0.0,58,0.00,-SN,OVC,0.00,100.0,WeatherDisplay:10.37,2013-02-04 20:54:00,
2013-02-04 15:59:00,27.7,14.8,29.88,ENE,68,0.0,1.2,58,0.00,-SN,OVC,0.00,100.0,WeatherDisplay:10.37,2013-02-04 20:59:00,
2013-02-04 16:04:00,27.5,14.6,29.88,East,90,0.0,0.0,58,0.00,-SN,OVC,0.00,100.0,WeatherDisplay:10.37,2013-02-04 21:04:00,
2013-02-04 16:09:00,27.5,14.6,29.88,East,90,0.0,0.0,58,0.00,-SN,OVC,0.00,100.0,WeatherDisplay:10.37,2013-02-04 21:09:00,
2013-02-04 16:14:00,27.3,14.5,29.88,ENE,68,0.9,3.1,58,0.00,-SN,OVC,0.00,0.0,WeatherDisplay:10.37,2013-02-04 21:14:00,
2013-02-04 16:19:00,27.3,14.5,29.88,ENE,68,0.0,0.0,58,0.00,-SN,OVC,0.00,0.0,WeatherDisplay:10.37,2013-02-04 21:19:00,
2013-02-04 16:24:00,27.3,14.5,29.88,East,90,1.4,2.3,58,0.00,-SN,OVC,0.00,0.0,WeatherDisplay:10.37,2013-02-04 21:24:00,
2013-02-04 16:29:00,27.3,14.5,29.88,East,90,0.0,0.0,58,0.00,-SN,OVC,0.00,0.0,WeatherDisplay:10.37,2013-02-04 21:29:00,
2013-02-04 16:34:00,27.1,14.3,29.88,East,90,0.0,0.0,58,0.00,-SN,OVC,0.00,0.0,WeatherDisplay:10.37,2013-02-04 21:34:00,
2013-02-04 16:39:00,27.0,14.5,29.88,East,90,0.0,0.0,59,0.00,-SN,OVC,0.00,0.0,WeatherDisplay:10.37,2013-02-04 21:39:00,
2013-02-04 16:44:00,27.0,14.5,29.88,ENE,68,0.9,2.0,59,0.00,-SN,OVC,0.00,0.0,WeatherDisplay:10.37,2013-02-04 21:44:00,
2013-02-04 16:49:00,27.0,14.5,29.88,ENE,68,0.0,0.0,59,0.00,-SN,OVC,0.00,0.0,WeatherDisplay:10.37,2013-02-04 21:49:00,
2013-02-04 16:54:00,27.0,14.5,29.88,ESE,112,1.2,3.5,59,0.00,-SN,OVC,0.00,0.0,WeatherDisplay:10.37,2013-02-04 21:54:00,
2013-02-04 16:59:00,27.0,14.5,29.88,ESE,112,1.2,2.3,59,0.00,-SN,OVC,0.00,0.0,WeatherDisplay:10.37,2013-02-04 21:59:00,
2013-02-04 17:04:00,26.8,14.4,29.88,ESE,112,0.0,1.2,59,0.00,-SN,OVC,0.00,0.0,WeatherDisplay:10.37,2013-02-04 22:04:00,
2013-02-04 17:09:00,26.8,14.4,29.88,ENE,68,0.0,1.2,59,0.00,-SN,OVC,0.00,0.0,WeatherDisplay:10.37,2013-02-04 22:09:00,
2013-02-04 17:14:00,26.8,14.4,29.88,NE,45,1.6,2.3,59,0.00,-SN,OVC,0.00,0.0,WeatherDisplay:10.37,2013-02-04 22:14:00,
2013-02-04 17:19:00,26.6,14.6,29.88,ENE,68,0.0,0.0,60,0.00,-SN,OVC,0.00,0.0,WeatherDisplay:10.37,2013-02-04 22:19:00,
2013-02-04 17:24:00,26.6,14.6,29.88,ESE,112,0.0,0.0,60,0.00,-SN,OVC,0.00,0.0,WeatherDisplay:10.37,2013-02-04 22:24:00,
2013-02-04 17:29:00,26.6,14.6,29.88,ESE,112,0.0,0.0,60,0.00,-SN,OVC,0.00,0.0,WeatherDisplay:10.37,2013-02-04 22:29:00,
2013-02-04 17:34:00,26.4,14.4,29.88,ESE,112,0.0,0.0,60,0.00,-SN,OVC,0.00,0.0,WeatherDisplay:10.37,2013-02-04 22:34:00,
2013-02-04 17:39:00,26.2,14.6,29.88,ESE,112,1.6,2.3,61,0.00,-SN,OVC,0.00,0.0,WeatherDisplay:10.37,2013-02-04 22:39:00,
2013-02-04 17:44:00,26.2,14.6,29.85,ENE,68,0.0,1.4,61,0.00,-SN,OVC,0.00,0.0,WeatherDisplay:10.37,2013-02-04 22:44:00,
2013-02-04 17:49:00,26.1,14.8,29.85,SSE,158,0.0,2.3,62,0.00,-SN,OVC,0.00,0.0,WeatherDisplay:10.37,2013-02-04 22:49:00,
2013-02-04 17:54:00,26.1,14.4,29.85,ESE,112,0.0,2.6,61,0.00,-SN,OVC,0.00,0.0,WeatherDisplay:10.37,2013-02-04 22:54:00,
2013-02-04 17:59:00,26.1,14.8,29.85,ESE,112,2.0,2.9,62,0.00,-SN,OVC,0.00,0.0,WeatherDisplay:10.37,2013-02-04 22:59:00,
2013-02-04 18:04:00,26.1,14.8,29.85,ESE,112,0.0,0.0,62,0.00,-SN,OVC,0.00,0.0,WeatherDisplay:10.37,2013-02-04 23:04:00,
2013-02-04 18:09:00,25.9,14.6,29.85,ESE,112,0.0,0.0,62,0.00,-SN,OVC,0.00,0.0,WeatherDisplay:10.37,2013-02-04 23:09:00,
2013-02-04 18:14:00,25.9,14.6,29.85,ESE,112,0.0,0.0,62,0.00,-SN,OVC,0.00,0.0,WeatherDisplay:10.37,2013-02-04 23:14:00,
2013-02-04 18:19:00,25.7,14.5,29.85,ESE,112,0.0,0.0,62,0.00,-SN,OVC,0.00,0.0,WeatherDisplay:10.37,2013-02-04 23:19:00,
2013-02-04 18:24:00,25.7,14.5,29.85,ENE,68,0.0,0.0,62,0.00,-SN,OVC,0.00,0.0,WeatherDisplay:10.37,2013-02-04 23:24:00,
2013-02-04 18:29:00,25.7,14.5,29.85,ENE,68,0.0,0.0,62,0.00,-SN,OVC,0.00,0.0,WeatherDisplay:10.37,2013-02-04 23:29:00,
2013-02-04 18:34:00,25.7,14.5,29.85,ENE,68,0.0,0.0,62,0.00,-SN,OVC,0.00,0.0,WeatherDisplay:10.37,2013-02-04 23:34:00,
2013-02-04 18:39:00,25.5,14.3,29.85,ENE,68,0.0,0.0,62,0.00,-SN,OVC,0.00,0.0,WeatherDisplay:10.37,2013-02-04 23:39:00,
2013-02-04 18:44:00,25.5,14.3,29.85,East,90,0.0,0.0,62,0.00,-SN,OVC,0.00,0.0,WeatherDisplay:10.37,2013-02-04 23:44:00,
2013-02-04 18:49:00,25.3,14.5,29.85,East,90,0.0,0.0,63,0.00,-SN,OVC,0.00,0.0,WeatherDisplay:10.37,2013-02-04 23:49:00,
2013-02-04 18:54:00,25.3,14.5,29.85,ESE,112,0.0,0.0,63,0.00,-SN,OVC,0.00,0.0,WeatherDisplay:10.37,2013-02-04 23:54:00,
2013-02-04 18:59:00,25.3,14.5,29.88,ESE,112,0.0,0.0,63,0.00,-SN,OVC,0.00,0.0,WeatherDisplay:10.37,2013-02-04 23:59:00,
2013-02-04 19:05:00,25.3,14.5,29.88,East,90,0.0,1.2,63,0.00,OVC,,0.00,0.0,WeatherDisplay:10.37,2013-02-05 00:05:00,
2013-02-04 19:10:00,25.3,14.5,29.88,ESE,112,0.0,0.0,63,0.00,OVC,,0.00,0.0,WeatherDisplay:10.37,2013-02-05 00:10:00,
2013-02-04 19:15:00,25.2,14.3,29.88,ESE,112,0.0,0.0,63,0.00,OVC,,0.00,0.0,WeatherDisplay:10.37,2013-02-05 00:15:00,
2013-02-04 19:20:00,25.2,14.3,29.88,ESE,112,0.0,0.0,63,0.00,OVC,,0.00,0.0,WeatherDisplay:10.37,2013-02-05 00:20:00,
2013-02-04 19:25:00,25.0,14.2,29.88,ESE,112,0.0,0.0,63,0.00,OVC,,0.00,0.0,WeatherDisplay:10.37,2013-02-05 00:25:00,
2013-02-04 19:30:00,25.0,14.2,29.88,ESE,112,0.0,0.0,63,0.00,OVC,,0.00,0.0,WeatherDisplay:10.37,2013-02-05 00:30:00,
2013-02-04 19:35:00,25.0,14.2,29.88,East,90,0.0,0.0,63,0.00,OVC,,0.00,0.0,WeatherDisplay:10.37,2013-02-05 00:35:00,
2013-02-04 19:40:00,25.0,14.2,29.88,East,90,0.0,0.0,63,0.00,OVC,,0.00,0.0,WeatherDisplay:10.37,2013-02-05 00:40:00,
2013-02-04 19:45:00,24.8,14.3,29.88,East,90,0.0,0.0,64,0.00,OVC,,0.00,0.0,WeatherDisplay:10.37,2013-02-05 00:45:00,
2013-02-04 19:50:00,24.8,14.3,29.88,East,90,0.0,0.0,64,0.00,OVC,,0.00,0.0,WeatherDisplay:10.37,2013-02-05 00:50:00,
2013-02-04 19:55:00,24.8,14.0,29.88,East,90,0.0,0.0,63,0.00,OVC,,0.00,0.0,WeatherDisplay:10.37,2013-02-05 00:55:00,
2013-02-04 20:00:00,24.8,14.0,29.88,ENE,68,0.0,0.0,63,0.00,OVC,,0.00,0.0,WeatherDisplay:10.37,2013-02-05 01:00:00,
2013-02-04 20:05:00,24.8,14.0,29.88,NNE,22,0.0,0.0,63,0.00,OVC,,0.00,0.0,WeatherDisplay:10.37,2013-02-05 01:05:00,
2013-02-04 20:10:00,24.8,14.3,29.88,NNW,338,0.0,0.0,64,0.00,OVC,,0.00,0.0,WeatherDisplay:10.37,2013-02-05 01:10:00,
2013-02-04 20:15:00,24.8,14.3,29.88,NNW,338,0.0,0.0,64,0.00,OVC,,0.00,0.0,WeatherDisplay:10.37,2013-02-05 01:15:00,
2013-02-04 20:20:00,24.8,14.3,29.88,North,0,0.0,0.0,64,0.00,OVC,,0.00,0.0,WeatherDisplay:10.37,2013-02-05 01:20:00,
2013-02-04 20:25:00,24.8,14.3,29.88,North,0,0.0,0.0,64,0.00,OVC,,0.00,0.0,WeatherDisplay:10.37,2013-02-05 01:25:00,
2013-02-04 20:30:00,24.8,14.3,29.88,North,0,0.0,0.0,64,0.00,OVC,,0.00,0.0,WeatherDisplay:10.37,2013-02-05 01:30:00,
2013-02-04 20:35:00,24.8,14.3,29.88,North,0,0.0,0.0,64,0.00,OVC,,0.00,0.0,WeatherDisplay:10.37,2013-02-05 01:35:00,
2013-02-04 20:40:00,24.8,14.3,29.88,North,0,0.0,0.0,64,0.00,OVC,,0.00,0.0,WeatherDisplay:10.37,2013-02-05 01:40:00,
2013-02-04 20:45:00,24.8,14.3,29.88,NNE,22,1.2,1.2,64,0.00,OVC,,0.00,0.0,WeatherDisplay:10.37,2013-02-05 01:45:00,
2013-02-04 20:50:00,24.8,14.3,29.88,NNE,22,0.0,0.0,64,0.00,OVC,,0.00,0.0,WeatherDisplay:10.37,2013-02-05 01:50:00,
2013-02-04 20:55:00,25.0,14.5,29.88,ENE,68,0.0,0.0,64,0.00,OVC,,0.00,0.0,WeatherDisplay:10.37,2013-02-05 01:55:00,
2013-02-04 21:00:00,25.0,14.5,29.88,NE,45,0.0,0.0,64,0.00,OVC,,0.00,0.0,WeatherDisplay:10.37,2013-02-05 02:00:00,
2013-02-04 21:05:00,25.0,14.5,29.88,NE,45,0.0,0.0,64,0.00,-SN,OVC,0.00,0.0,WeatherDisplay:10.37,2013-02-05 02:05:00,
2013-02-04 21:10:00,25.0,14.5,29.88,ENE,68,2.0,2.6,64,0.00,-SN,OVC,0.00,0.0,WeatherDisplay:10.37,2013-02-05 02:10:00,
2013-02-04 21:15:00,25.0,14.5,29.88,ENE,68,1.2,1.6,64,0.00,-SN,OVC,0.00,0.0,WeatherDisplay:10.37,2013-02-05 02:15:00,
2013-02-04 21:20:00,24.8,14.3,29.88,ENE,68,2.4,3.5,64,0.00,-SN,OVC,0.00,0.0,WeatherDisplay:10.37,2013-02-05 02:20:00,
2013-02-04 21:25:00,24.8,14.3,29.88,NE,45,0.0,0.0,64,0.00,-SN,OVC,0.00,0.0,WeatherDisplay:10.37,2013-02-05 02:25:00,
2013-02-04 21:30:00,24.8,14.3,29.88,NE,45,0.0,0.0,64,0.00,-SN,OVC,0.00,0.0,WeatherDisplay:10.37,2013-02-05 02:30:00,
2013-02-04 21:35:00,24.8,14.3,29.88,NE,45,0.0,0.0,64,0.00,-SN,OVC,0.00,0.0,WeatherDisplay:10.37,2013-02-05 02:35:00,
2013-02-04 21:40:00,24.8,14.7,29.88,NE,45,0.0,0.0,65,0.00,-SN,OVC,0.00,0.0,WeatherDisplay:10.37,2013-02-05 02:40:00,
2013-02-04 21:45:00,24.8,14.7,29.91,NE,45,0.0,1.2,65,0.00,-SN,OVC,0.00,0.0,WeatherDisplay:10.37,2013-02-05 02:45:00,
2013-02-04 21:50:00,24.8,14.7,29.91,NE,45,0.0,0.0,65,0.00,-SN,OVC,0.00,0.0,WeatherDisplay:10.37,2013-02-05 02:50:00,
2013-02-04 21:55:00,24.8,14.7,29.91,NE,45,0.0,0.0,65,0.00,-SN,OVC,0.00,0.0,WeatherDisplay:10.37,2013-02-05 02:55:00,
2013-02-04 22:00:00,24.8,14.7,29.88,ENE,68,0.0,0.0,65,0.00,-SN,OVC,0.00,0.0,WeatherDisplay:10.37,2013-02-05 03:00:00,
2013-02-04 22:05:00,24.8,14.7,29.88,East,90,0.0,0.0,65,0.00,OVC,,0.00,0.0,WeatherDisplay:10.37,2013-02-05 03:05:00,
2013-02-04 22:10:00,24.8,14.7,29.88,ESE,112,0.0,2.3,65,0.00,OVC,,0.00,0.0,WeatherDisplay:10.37,2013-02-05 03:10:00,
2013-02-04 22:15:00,24.8,14.7,29.88,ENE,68,0.9,2.3,65,0.00,OVC,,0.00,0.0,WeatherDisplay:10.37,2013-02-05 03:15:00,
2013-02-04 22:20:00,24.8,14.7,29.88,ENE,68,2.4,3.6,65,0.00,OVC,,0.00,0.0,WeatherDisplay:10.37,2013-02-05 03:20:00,
2013-02-04 22:25:00,24.6,14.5,29.88,ENE,68,2.2,3.1,65,0.00,OVC,,0.00,0.0,WeatherDisplay:10.37,2013-02-05 03:25:00,
2013-02-04 22:30:00,24.4,14.4,29.88,ENE,68,0.9,4.6,65,0.00,OVC,,0.00,0.0,WeatherDisplay:10.37,2013-02-05 03:30:00,
2013-02-04 22:35:00,24.4,14.4,29.88,ENE,68,2.2,3.1,65,0.00,OVC,,0.00,0.0,WeatherDisplay:10.37,2013-02-05 03:35:00,
2013-02-04 22:40:00,24.4,14.4,29.88,ENE,68,0.0,2.3,65,0.00,OVC,,0.00,0.0,WeatherDisplay:10.37,2013-02-05 03:40:00,
2013-02-04 22:45:00,24.3,14.2,29.88,East,90,2.2,4.6,65,0.00,OVC,,0.00,0.0,WeatherDisplay:10.37,2013-02-05 03:45:00,
2013-02-04 22:50:00,24.3,13.8,29.88,ENE,68,0.0,0.0,64,0.00,OVC,,0.00,0.0,WeatherDisplay:10.37,2013-02-05 03:50:00,
2013-02-04 22:55:00,24.1,13.7,29.88,ENE,68,0.0,3.6,64,0.00,OVC,,0.00,0.0,WeatherDisplay:10.37,2013-02-05 03:55:00,
2013-02-04 23:00:00,23.9,13.5,29.88,NE,45,0.0,3.5,64,0.00,OVC,,0.00,0.0,WeatherDisplay:10.37,2013-02-05 04:00:00,
2013-02-04 23:05:00,23.7,13.3,29.88,NE,45,0.0,0.0,64,0.00,-SN,OVC,0.00,0.0,WeatherDisplay:10.37,2013-02-05 04:05:00,
2013-02-04 23:10:00,23.5,13.1,29.88,NE,45,2.2,4.6,64,0.00,-SN,OVC,0.00,0.0,WeatherDisplay:10.37,2013-02-05 04:10:00,
2013-02-04 23:15:00,23.5,13.1,29.88,ENE,68,0.0,0.0,64,0.00,-SN,OVC,0.00,0.0,WeatherDisplay:10.37,2013-02-05 04:15:00,
2013-02-04 23:20:00,23.5,13.5,29.88,ENE,68,0.0,0.0,65,0.00,-SN,OVC,0.00,0.0,WeatherDisplay:10.37,2013-02-05 04:20:00,
2013-02-04 23:25:00,23.4,13.3,29.85,NE,45,0.0,0.0,65,0.00,-SN,OVC,0.00,0.0,WeatherDisplay:10.37,2013-02-05 04:25:00,
2013-02-04 23:30:00,23.4,13.3,29.85,NE,45,0.0,0.0,65,0.00,-SN,OVC,0.00,0.0,WeatherDisplay:10.37,2013-02-05 04:30:00,
2013-02-04 23:35:00,23.4,13.3,29.85,NE,45,0.0,0.0,65,0.00,-SN,OVC,0.00,0.0,WeatherDisplay:10.37,2013-02-05 04:35:00,
2013-02-04 23:40:00,23.4,13.3,29.85,ENE,68,0.0,0.0,65,0.00,-SN,OVC,0.00,0.0,WeatherDisplay:10.37,2013-02-05 04:40:00,
2013-02-04 23:45:00,23.4,13.3,29.88,NE,45,0.0,0.0,65,0.00,-SN,OVC,0.00,0.0,WeatherDisplay:10.37,2013-02-05 04:45:00,
2013-02-04 23:50:00,23.4,13.3,29.88,NE,45,0.0,0.0,65,0.00,-SN,OVC,0.00,0.0,WeatherDisplay:10.37,2013-02-05 04:50:00,
2013-02-04 23:55:00,23.4,13.3,29.88,NE,45,0.0,0.0,65,0.00,-SN,OVC,0.00,0.0,WeatherDisplay:10.37,2013-02-05 04:55:00,